sensor_id;sensor_type;location;lat;lon;timestamp;P1;P2;P0
78512;PMS5003;67809;55.034;73.462;2023-12-04T00:00:09;10.75;6.50;3.00
78512;PMS5003;67809;55.034;73.462;2023-12-04T00:02:39;7.00;6.00;3.00
78512;PMS5003;67809;55.034;73.462;2023-12-04T00:05:05;8.00;6.25;3.00
78512;PMS5003;67809;55.034;73.462;2023-12-04T00:07:32;7.50;6.00;3.25
78512;PMS5003;67809;55.034;73.462;2023-12-04T00:09:58;8.25;7.00;4.00
78512;PMS5003;67809;55.034;73.462;2023-12-04T00:12:24;9.00;7.00;3.25
78512;PMS5003;67809;55.034;73.462;2023-12-04T00:14:50;9.00;6.00;3.00
78512;PMS5003;67809;55.034;73.462;2023-12-04T00:17:16;7.00;5.00;3.00
78512;PMS5003;67809;55.034;73.462;2023-12-04T00:19:43;7.67;6.00;3.67
78512;PMS5003;67809;55.034;73.462;2023-12-04T00:22:09;8.00;5.75;2.75
78512;PMS5003;67809;55.034;73.462;2023-12-04T00:24:36;6.00;5.00;3.00
78512;PMS5003;67809;55.034;73.462;2023-12-04T00:27:02;7.25;6.00;3.50
78512;PMS5003;67809;55.034;73.462;2023-12-04T00:29:28;8.00;5.00;3.33
78512;PMS5003;67809;55.034;73.462;2023-12-04T00:31:54;7.00;5.50;3.00
78512;PMS5003;67809;55.034;73.462;2023-12-04T00:34:22;7.00;6.00;4.00
78512;PMS5003;67809;55.034;73.462;2023-12-04T00:36:48;6.00;5.00;3.00
78512;PMS5003;67809;55.034;73.462;2023-12-04T00:39:15;5.75;5.00;3.00
78512;PMS5003;67809;55.034;73.462;2023-12-04T00:41:41;5.00;4.00;3.00
78512;PMS5003;67809;55.034;73.462;2023-12-04T00:44:08;6.00;5.00;3.75
78512;PMS5003;67809;55.034;73.462;2023-12-04T00:46:34;10.00;7.75;4.00
78512;PMS5003;67809;55.034;73.462;2023-12-04T00:49:00;5.50;5.00;3.00
78512;PMS5003;67809;55.034;73.462;2023-12-04T00:51:26;9.00;7.00;4.00
78512;PMS5003;67809;55.034;73.462;2023-12-04T00:53:52;8.00;5.00;3.25
78512;PMS5003;67809;55.034;73.462;2023-12-04T00:56:18;7.00;5.00;3.00
78512;PMS5003;67809;55.034;73.462;2023-12-04T00:58:46;8.33;6.00;4.00
78512;PMS5003;67809;55.034;73.462;2023-12-04T01:01:12;8.50;6.25;3.75
78512;PMS5003;67809;55.034;73.462;2023-12-04T01:03:39;8.00;6.00;4.00
78512;PMS5003;67809;55.034;73.462;2023-12-04T01:06:06;10.00;7.00;4.00
78512;PMS5003;67809;55.034;73.462;2023-12-04T01:08:32;4.67;4.00;2.00
78512;PMS5003;67809;55.034;73.462;2023-12-04T01:10:58;7.00;6.00;3.00
78512;PMS5003;67809;55.034;73.462;2023-12-04T01:13:24;6.50;5.00;3.00
78512;PMS5003;67809;55.034;73.462;2023-12-04T01:15:50;6.00;5.00;4.00
78512;PMS5003;67809;55.034;73.462;2023-12-04T01:18:16;9.00;7.00;4.00
78512;PMS5003;67809;55.034;73.462;2023-12-04T01:20:43;7.00;4.67;3.00
78512;PMS5003;67809;55.034;73.462;2023-12-04T01:23:09;9.50;8.00;4.00
78512;PMS5003;67809;55.034;73.462;2023-12-04T01:25:35;4.00;3.25;3.00
78512;PMS5003;67809;55.034;73.462;2023-12-04T01:28:01;5.00;4.00;3.00
78512;PMS5003;67809;55.034;73.462;2023-12-04T01:30:27;6.67;5.00;3.00
78512;PMS5003;67809;55.034;73.462;2023-12-04T01:32:53;5.00;4.00;2.00
78512;PMS5003;67809;55.034;73.462;2023-12-04T01:35:19;7.00;6.00;3.00
78512;PMS5003;67809;55.034;73.462;2023-12-04T01:37:45;4.50;3.00;2.00
78512;PMS5003;67809;55.034;73.462;2023-12-04T01:40:11;4.00;3.00;2.00
78512;PMS5003;67809;55.034;73.462;2023-12-04T01:42:37;5.00;4.00;2.00
78512;PMS5003;67809;55.034;73.462;2023-12-04T01:45:04;5.00;5.00;2.00
78512;PMS5003;67809;55.034;73.462;2023-12-04T01:47:31;5.00;4.00;2.00
78512;PMS5003;67809;55.034;73.462;2023-12-04T01:49:57;3.50;3.00;2.00
78512;PMS5003;67809;55.034;73.462;2023-12-04T01:52:23;3.00;2.00;1.00
78512;PMS5003;67809;55.034;73.462;2023-12-04T01:54:49;3.00;2.00;1.00
78512;PMS5003;67809;55.034;73.462;2023-12-04T01:57:16;4.00;3.00;2.00
78512;PMS5003;67809;55.034;73.462;2023-12-04T01:59:42;4.00;3.00;1.33
78512;PMS5003;67809;55.034;73.462;2023-12-04T02:02:08;4.00;3.00;1.00
78512;PMS5003;67809;55.034;73.462;2023-12-04T02:04:35;4.00;3.00;2.00
78512;PMS5003;67809;55.034;73.462;2023-12-04T02:07:01;4.00;3.00;2.00
78512;PMS5003;67809;55.034;73.462;2023-12-04T02:09:28;5.50;4.25;2.00
78512;PMS5003;67809;55.034;73.462;2023-12-04T02:11:54;4.00;4.00;2.00
78512;PMS5003;67809;55.034;73.462;2023-12-04T02:14:21;3.00;3.00;2.00
78512;PMS5003;67809;55.034;73.462;2023-12-04T02:16:47;3.00;3.00;2.00
78512;PMS5003;67809;55.034;73.462;2023-12-04T02:19:13;3.00;3.00;1.00
78512;PMS5003;67809;55.034;73.462;2023-12-04T02:21:41;5.00;4.00;2.00
78512;PMS5003;67809;55.034;73.462;2023-12-04T02:24:07;5.00;4.00;2.00
78512;PMS5003;67809;55.034;73.462;2023-12-04T02:26:34;5.00;4.00;2.00
78512;PMS5003;67809;55.034;73.462;2023-12-04T02:29:05;8.00;5.00;3.00
78512;PMS5003;67809;55.034;73.462;2023-12-04T02:31:33;4.00;3.00;2.75
78512;PMS5003;67809;55.034;73.462;2023-12-04T02:34:06;4.25;4.00;2.00
78512;PMS5003;67809;55.034;73.462;2023-12-04T02:36:40;7.00;4.00;3.00
78512;PMS5003;67809;55.034;73.462;2023-12-04T02:39:08;3.00;2.00;1.00
78512;PMS5003;67809;55.034;73.462;2023-12-04T02:41:34;4.00;3.00;1.00
78512;PMS5003;67809;55.034;73.462;2023-12-04T02:44:00;3.50;2.75;2.00
78512;PMS5003;67809;55.034;73.462;2023-12-04T02:46:26;4.00;3.00;1.00
78512;PMS5003;67809;55.034;73.462;2023-12-04T02:48:53;5.00;4.00;3.00
78512;PMS5003;67809;55.034;73.462;2023-12-04T02:51:19;4.67;3.00;2.00
78512;PMS5003;67809;55.034;73.462;2023-12-04T02:53:45;5.00;3.00;2.00
78512;PMS5003;67809;55.034;73.462;2023-12-04T02:56:11;4.00;3.25;2.00
78512;PMS5003;67809;55.034;73.462;2023-12-04T02:58:37;4.00;3.00;2.00
78512;PMS5003;67809;55.034;73.462;2023-12-04T03:01:03;4.00;3.00;2.00
78512;PMS5003;67809;55.034;73.462;2023-12-04T03:03:29;3.75;3.00;1.00
78512;PMS5003;67809;55.034;73.462;2023-12-04T03:05:55;3.75;2.75;2.00
78512;PMS5003;67809;55.034;73.462;2023-12-04T03:08:21;3.25;2.25;2.00
78512;PMS5003;67809;55.034;73.462;2023-12-04T03:10:48;3.67;3.00;2.00
78512;PMS5003;67809;55.034;73.462;2023-12-04T03:13:14;4.00;3.00;2.00
78512;PMS5003;67809;55.034;73.462;2023-12-04T03:15:40;3.00;3.00;2.00
78512;PMS5003;67809;55.034;73.462;2023-12-04T03:18:06;4.00;3.00;1.00
78512;PMS5003;67809;55.034;73.462;2023-12-04T03:20:32;5.75;4.00;2.00
78512;PMS5003;67809;55.034;73.462;2023-12-04T03:22:59;4.75;3.00;1.00
78512;PMS5003;67809;55.034;73.462;2023-12-04T03:25:25;4.50;4.00;2.00
78512;PMS5003;67809;55.034;73.462;2023-12-04T03:27:51;2.50;2.00;1.75
78512;PMS5003;67809;55.034;73.462;2023-12-04T03:30:17;3.00;3.00;1.00
78512;PMS5003;67809;55.034;73.462;2023-12-04T03:32:43;3.75;3.00;1.00
78512;PMS5003;67809;55.034;73.462;2023-12-04T03:35:10;4.75;2.75;1.75
78512;PMS5003;67809;55.034;73.462;2023-12-04T03:37:36;3.75;2.75;1.00
78512;PMS5003;67809;55.034;73.462;2023-12-04T03:40:02;5.00;4.00;2.00
78512;PMS5003;67809;55.034;73.462;2023-12-04T03:42:28;4.25;3.50;2.00
78512;PMS5003;67809;55.034;73.462;2023-12-04T03:44:54;4.00;3.50;2.00
78512;PMS5003;67809;55.034;73.462;2023-12-04T03:47:21;3.00;2.00;1.00
78512;PMS5003;67809;55.034;73.462;2023-12-04T03:49:48;2.00;2.00;1.00
78512;PMS5003;67809;55.034;73.462;2023-12-04T03:52:15;3.00;2.00;1.00
78512;PMS5003;67809;55.034;73.462;2023-12-04T03:54:41;2.25;1.75;1.00
78512;PMS5003;67809;55.034;73.462;2023-12-04T03:57:08;4.00;3.00;2.00
78512;PMS5003;67809;55.034;73.462;2023-12-04T03:59:34;3.00;2.00;2.00
78512;PMS5003;67809;55.034;73.462;2023-12-04T04:02:00;3.67;2.00;1.00
78512;PMS5003;67809;55.034;73.462;2023-12-04T04:04:26;3.00;2.00;1.00
78512;PMS5003;67809;55.034;73.462;2023-12-04T04:06:52;3.00;2.75;1.00
78512;PMS5003;67809;55.034;73.462;2023-12-04T04:09:19;4.00;3.00;1.00
78512;PMS5003;67809;55.034;73.462;2023-12-04T04:11:46;4.00;2.00;2.00
78512;PMS5003;67809;55.034;73.462;2023-12-04T04:14:12;2.00;1.75;1.00
78512;PMS5003;67809;55.034;73.462;2023-12-04T04:16:38;1.75;1.25;0.00
78512;PMS5003;67809;55.034;73.462;2023-12-04T04:19:05;2.50;2.00;1.00
78512;PMS5003;67809;55.034;73.462;2023-12-04T04:21:31;3.25;3.00;2.00
78512;PMS5003;67809;55.034;73.462;2023-12-04T04:23:57;3.00;3.00;2.00
78512;PMS5003;67809;55.034;73.462;2023-12-04T04:26:23;2.00;2.00;1.00
78512;PMS5003;67809;55.034;73.462;2023-12-04T04:28:49;3.25;2.75;1.00
78512;PMS5003;67809;55.034;73.462;2023-12-04T04:31:15;3.00;2.00;1.00
78512;PMS5003;67809;55.034;73.462;2023-12-04T04:33:42;6.25;4.25;2.00
78512;PMS5003;67809;55.034;73.462;2023-12-04T04:36:09;3.00;2.00;1.00
78512;PMS5003;67809;55.034;73.462;2023-12-04T04:38:35;3.50;3.00;2.00
78512;PMS5003;67809;55.034;73.462;2023-12-04T04:41:01;4.00;4.00;2.00
78512;PMS5003;67809;55.034;73.462;2023-12-04T04:43:27;4.00;3.00;2.00
78512;PMS5003;67809;55.034;73.462;2023-12-04T04:45:53;5.00;4.00;1.00
78512;PMS5003;67809;55.034;73.462;2023-12-04T04:48:19;4.00;3.00;2.00
78512;PMS5003;67809;55.034;73.462;2023-12-04T04:50:45;2.00;1.00;1.00
78512;PMS5003;67809;55.034;73.462;2023-12-04T04:53:11;3.00;2.00;1.00
78512;PMS5003;67809;55.034;73.462;2023-12-04T04:55:37;2.00;1.75;1.00
78512;PMS5003;67809;55.034;73.462;2023-12-04T04:58:04;1.75;1.75;1.00
78512;PMS5003;67809;55.034;73.462;2023-12-04T05:00:33;2.00;1.00;0.00
78512;PMS5003;67809;55.034;73.462;2023-12-04T05:02:59;2.00;1.00;1.00
78512;PMS5003;67809;55.034;73.462;2023-12-04T05:05:37;3.50;3.00;1.50
78512;PMS5003;67809;55.034;73.462;2023-12-04T05:08:03;3.00;2.00;1.00
78512;PMS5003;67809;55.034;73.462;2023-12-04T05:10:29;2.75;1.00;1.00
78512;PMS5003;67809;55.034;73.462;2023-12-04T05:12:55;2.00;1.00;1.00
78512;PMS5003;67809;55.034;73.462;2023-12-04T05:15:21;4.00;3.00;1.00
78512;PMS5003;67809;55.034;73.462;2023-12-04T05:17:48;4.00;2.00;1.00
78512;PMS5003;67809;55.034;73.462;2023-12-04T05:20:14;3.00;2.00;1.00
78512;PMS5003;67809;55.034;73.462;2023-12-04T05:22:41;3.00;1.00;1.00
78512;PMS5003;67809;55.034;73.462;2023-12-04T05:25:07;2.00;2.00;1.00
78512;PMS5003;67809;55.034;73.462;2023-12-04T05:27:33;4.00;3.00;1.00
78512;PMS5003;67809;55.034;73.462;2023-12-04T05:29:59;2.00;1.00;0.50
78512;PMS5003;67809;55.034;73.462;2023-12-04T05:32:26;2.75;2.50;1.00
78512;PMS5003;67809;55.034;73.462;2023-12-04T05:34:52;2.00;2.00;1.00
78512;PMS5003;67809;55.034;73.462;2023-12-04T05:37:19;2.00;2.00;2.00
78512;PMS5003;67809;55.034;73.462;2023-12-04T05:39:45;1.00;1.00;0.00
78512;PMS5003;67809;55.034;73.462;2023-12-04T05:42:12;3.00;3.00;2.00
78512;PMS5003;67809;55.034;73.462;2023-12-04T05:44:39;4.00;3.00;1.00
78512;PMS5003;67809;55.034;73.462;2023-12-04T05:47:05;3.00;2.00;1.00
78512;PMS5003;67809;55.034;73.462;2023-12-04T05:49:34;1.50;1.00;1.00
78512;PMS5003;67809;55.034;73.462;2023-12-04T05:52:00;3.00;3.00;1.00
78512;PMS5003;67809;55.034;73.462;2023-12-04T05:54:26;2.00;1.00;0.75
78512;PMS5003;67809;55.034;73.462;2023-12-04T05:56:52;2.75;2.00;1.00
78512;PMS5003;67809;55.034;73.462;2023-12-04T05:59:19;4.00;2.00;1.00
78512;PMS5003;67809;55.034;73.462;2023-12-04T06:01:45;2.33;1.67;1.00
78512;PMS5003;67809;55.034;73.462;2023-12-04T06:04:12;5.75;4.00;2.00
78512;PMS5003;67809;55.034;73.462;2023-12-04T06:06:39;4.00;3.75;2.00
78512;PMS5003;67809;55.034;73.462;2023-12-04T06:09:05;4.00;3.00;2.00
78512;PMS5003;67809;55.034;73.462;2023-12-04T06:11:31;7.00;5.00;3.00
78512;PMS5003;67809;55.034;73.462;2023-12-04T06:13:57;7.25;6.00;3.00
78512;PMS5003;67809;55.034;73.462;2023-12-04T06:16:23;4.25;4.00;2.00
78512;PMS5003;67809;55.034;73.462;2023-12-04T06:18:50;6.00;5.00;2.00
78512;PMS5003;67809;55.034;73.462;2023-12-04T06:21:17;6.00;5.00;2.50
78512;PMS5003;67809;55.034;73.462;2023-12-04T06:23:44;5.00;4.00;2.00
78512;PMS5003;67809;55.034;73.462;2023-12-04T06:26:10;7.25;4.75;2.00
78512;PMS5003;67809;55.034;73.462;2023-12-04T06:28:38;5.00;3.00;2.00
78512;PMS5003;67809;55.034;73.462;2023-12-04T06:31:04;4.00;3.00;2.00
78512;PMS5003;67809;55.034;73.462;2023-12-04T06:33:30;1.33;1.00;1.00
78512;PMS5003;67809;55.034;73.462;2023-12-04T06:35:57;4.50;3.25;2.00
78512;PMS5003;67809;55.034;73.462;2023-12-04T06:38:24;6.00;5.00;2.50
78512;PMS5003;67809;55.034;73.462;2023-12-04T06:40:50;4.00;3.00;2.00
78512;PMS5003;67809;55.034;73.462;2023-12-04T06:43:16;5.00;4.00;3.00
78512;PMS5003;67809;55.034;73.462;2023-12-04T06:45:44;3.00;3.00;2.00
78512;PMS5003;67809;55.034;73.462;2023-12-04T06:48:12;6.00;5.00;2.25
78512;PMS5003;67809;55.034;73.462;2023-12-04T06:50:39;6.00;4.00;2.00
78512;PMS5003;67809;55.034;73.462;2023-12-04T06:53:06;5.00;4.00;2.00
78512;PMS5003;67809;55.034;73.462;2023-12-04T06:55:32;7.50;5.00;2.25
78512;PMS5003;67809;55.034;73.462;2023-12-04T06:57:58;7.75;6.25;3.50
78512;PMS5003;67809;55.034;73.462;2023-12-04T07:00:25;8.25;6.00;3.25
78512;PMS5003;67809;55.034;73.462;2023-12-04T07:02:51;4.00;3.00;2.00
78512;PMS5003;67809;55.034;73.462;2023-12-04T07:05:19;5.00;4.00;2.00
78512;PMS5003;67809;55.034;73.462;2023-12-04T07:07:45;4.75;4.00;2.00
78512;PMS5003;67809;55.034;73.462;2023-12-04T07:10:11;14.25;11.50;6.50
78512;PMS5003;67809;55.034;73.462;2023-12-04T07:12:40;12.50;10.25;6.00
78512;PMS5003;67809;55.034;73.462;2023-12-04T07:15:07;12.00;10.75;5.00
78512;PMS5003;67809;55.034;73.462;2023-12-04T07:17:34;5.25;4.00;3.00
78512;PMS5003;67809;55.034;73.462;2023-12-04T07:20:00;8.00;6.00;4.00
78512;PMS5003;67809;55.034;73.462;2023-12-04T07:22:27;6.25;6.00;3.75
78512;PMS5003;67809;55.034;73.462;2023-12-04T07:24:53;10.00;7.50;4.00
78512;PMS5003;67809;55.034;73.462;2023-12-04T07:27:19;5.00;4.00;2.00
78512;PMS5003;67809;55.034;73.462;2023-12-04T07:29:45;6.00;5.00;3.00
78512;PMS5003;67809;55.034;73.462;2023-12-04T07:32:11;8.67;5.33;3.00
78512;PMS5003;67809;55.034;73.462;2023-12-04T07:34:37;8.00;6.00;4.00
78512;PMS5003;67809;55.034;73.462;2023-12-04T07:37:03;12.00;9.00;5.00
78512;PMS5003;67809;55.034;73.462;2023-12-04T07:39:29;10.00;8.00;5.00
78512;PMS5003;67809;55.034;73.462;2023-12-04T07:41:58;9.00;8.00;5.33
78512;PMS5003;67809;55.034;73.462;2023-12-04T07:44:24;16.00;11.00;7.00
78512;PMS5003;67809;55.034;73.462;2023-12-04T07:46:50;10.00;8.00;5.25
78512;PMS5003;67809;55.034;73.462;2023-12-04T07:49:17;6.50;6.00;4.00
78512;PMS5003;67809;55.034;73.462;2023-12-04T07:51:43;13.00;10.00;5.00
78512;PMS5003;67809;55.034;73.462;2023-12-04T07:54:09;13.00;9.00;5.00
78512;PMS5003;67809;55.034;73.462;2023-12-04T07:56:35;16.50;13.00;7.00
78512;PMS5003;67809;55.034;73.462;2023-12-04T07:59:01;15.50;12.00;6.50
78512;PMS5003;67809;55.034;73.462;2023-12-04T08:01:28;11.25;9.00;6.00
78512;PMS5003;67809;55.034;73.462;2023-12-04T08:03:54;11.00;9.00;5.00
78512;PMS5003;67809;55.034;73.462;2023-12-04T08:06:20;10.50;8.00;5.00
78512;PMS5003;67809;55.034;73.462;2023-12-04T08:08:46;10.00;7.00;4.00
78512;PMS5003;67809;55.034;73.462;2023-12-04T08:11:12;7.50;6.00;4.00
78512;PMS5003;67809;55.034;73.462;2023-12-04T08:13:39;9.33;7.00;4.00
78512;PMS5003;67809;55.034;73.462;2023-12-04T08:16:12;9.00;7.00;4.50
78512;PMS5003;67809;55.034;73.462;2023-12-04T08:18:38;9.00;7.00;4.75
78512;PMS5003;67809;55.034;73.462;2023-12-04T08:21:05;7.00;6.00;4.00
78512;PMS5003;67809;55.034;73.462;2023-12-04T08:23:31;8.00;6.00;3.00
78512;PMS5003;67809;55.034;73.462;2023-12-04T08:25:57;8.00;6.00;3.00
78512;PMS5003;67809;55.034;73.462;2023-12-04T08:28:24;10.00;7.00;3.00
78512;PMS5003;67809;55.034;73.462;2023-12-04T08:30:50;21.25;14.75;8.75
78512;PMS5003;67809;55.034;73.462;2023-12-04T08:33:16;8.33;7.00;5.00
78512;PMS5003;67809;55.034;73.462;2023-12-04T08:35:44;12.00;9.00;5.00
78512;PMS5003;67809;55.034;73.462;2023-12-04T08:38:10;9.00;7.50;4.75
78512;PMS5003;67809;55.034;73.462;2023-12-04T08:40:37;12.00;8.00;5.00
78512;PMS5003;67809;55.034;73.462;2023-12-04T08:43:03;9.25;8.00;5.00
78512;PMS5003;67809;55.034;73.462;2023-12-04T08:45:29;9.00;7.00;4.00
78512;PMS5003;67809;55.034;73.462;2023-12-04T08:47:56;6.75;4.75;3.00
78512;PMS5003;67809;55.034;73.462;2023-12-04T08:50:22;8.00;6.00;3.00
78512;PMS5003;67809;55.034;73.462;2023-12-04T08:52:48;7.75;7.00;3.00
78512;PMS5003;67809;55.034;73.462;2023-12-04T08:55:14;7.75;5.00;3.75
78512;PMS5003;67809;55.034;73.462;2023-12-04T08:57:40;10.00;8.00;5.00
78512;PMS5003;67809;55.034;73.462;2023-12-04T09:00:06;7.00;6.00;4.00
78512;PMS5003;67809;55.034;73.462;2023-12-04T09:02:34;8.00;6.00;4.00
78512;PMS5003;67809;55.034;73.462;2023-12-04T09:05:00;7.00;5.00;3.00
78512;PMS5003;67809;55.034;73.462;2023-12-04T09:07:26;5.00;4.00;3.00
78512;PMS5003;67809;55.034;73.462;2023-12-04T09:09:52;7.00;5.00;3.00
78512;PMS5003;67809;55.034;73.462;2023-12-04T09:12:18;7.75;6.00;3.00
78512;PMS5003;67809;55.034;73.462;2023-12-04T09:14:44;9.00;7.25;5.00
78512;PMS5003;67809;55.034;73.462;2023-12-04T09:17:10;12.00;9.00;5.00
78512;PMS5003;67809;55.034;73.462;2023-12-04T09:19:36;9.00;7.00;4.00
78512;PMS5003;67809;55.034;73.462;2023-12-04T09:22:03;8.50;6.00;4.25
78512;PMS5003;67809;55.034;73.462;2023-12-04T09:24:29;9.00;7.00;4.00
78512;PMS5003;67809;55.034;73.462;2023-12-04T09:26:56;7.75;6.00;4.00
78512;PMS5003;67809;55.034;73.462;2023-12-04T09:29:23;7.00;6.00;3.25
78512;PMS5003;67809;55.034;73.462;2023-12-04T09:31:52;6.75;6.00;3.00
78512;PMS5003;67809;55.034;73.462;2023-12-04T09:34:19;12.00;8.00;4.00
78512;PMS5003;67809;55.034;73.462;2023-12-04T09:36:46;7.00;5.00;3.00
78512;PMS5003;67809;55.034;73.462;2023-12-04T09:39:14;6.00;5.00;3.00
78512;PMS5003;67809;55.034;73.462;2023-12-04T09:41:41;7.00;5.00;2.00
78512;PMS5003;67809;55.034;73.462;2023-12-04T09:44:09;4.33;4.00;2.00
78512;PMS5003;67809;55.034;73.462;2023-12-04T09:46:35;23.50;20.50;15.00
78512;PMS5003;67809;55.034;73.462;2023-12-04T09:49:01;5.00;5.00;4.00
78512;PMS5003;67809;55.034;73.462;2023-12-04T09:51:28;6.00;5.00;3.00
78512;PMS5003;67809;55.034;73.462;2023-12-04T09:53:54;7.00;5.00;3.00
78512;PMS5003;67809;55.034;73.462;2023-12-04T09:56:22;4.00;3.75;2.00
78512;PMS5003;67809;55.034;73.462;2023-12-04T09:58:49;8.00;6.50;4.00
78512;PMS5003;67809;55.034;73.462;2023-12-04T10:01:18;6.75;5.00;3.00
78512;PMS5003;67809;55.034;73.462;2023-12-04T10:03:45;6.00;5.00;3.00
78512;PMS5003;67809;55.034;73.462;2023-12-04T10:06:12;5.00;4.00;2.00
78512;PMS5003;67809;55.034;73.462;2023-12-04T10:08:43;5.00;4.75;2.00
78512;PMS5003;67809;55.034;73.462;2023-12-04T10:11:12;5.00;4.00;3.00
78512;PMS5003;67809;55.034;73.462;2023-12-04T10:13:40;6.00;4.00;3.00
78512;PMS5003;67809;55.034;73.462;2023-12-04T10:16:06;5.00;4.00;2.00
78512;PMS5003;67809;55.034;73.462;2023-12-04T10:18:33;5.25;5.00;3.00
78512;PMS5003;67809;55.034;73.462;2023-12-04T10:20:59;6.00;5.00;3.25
78512;PMS5003;67809;55.034;73.462;2023-12-04T10:23:38;5.50;5.00;3.00
78512;PMS5003;67809;55.034;73.462;2023-12-04T10:26:05;8.50;6.00;3.00
78512;PMS5003;67809;55.034;73.462;2023-12-04T10:28:33;6.00;4.75;3.00
78512;PMS5003;67809;55.034;73.462;2023-12-04T10:30:59;5.25;4.25;3.00
78512;PMS5003;67809;55.034;73.462;2023-12-04T10:33:29;9.00;8.00;4.00
78512;PMS5003;67809;55.034;73.462;2023-12-04T10:35:56;9.25;6.00;3.00
78512;PMS5003;67809;55.034;73.462;2023-12-04T10:38:23;9.00;6.00;4.00
78512;PMS5003;67809;55.034;73.462;2023-12-04T10:40:49;12.25;10.00;6.00
78512;PMS5003;67809;55.034;73.462;2023-12-04T10:43:16;7.25;6.00;4.00
78512;PMS5003;67809;55.034;73.462;2023-12-04T10:45:43;7.00;5.33;3.00
78512;PMS5003;67809;55.034;73.462;2023-12-04T10:48:09;6.75;5.00;3.00
78512;PMS5003;67809;55.034;73.462;2023-12-04T10:50:36;5.50;4.75;3.00
78512;PMS5003;67809;55.034;73.462;2023-12-04T10:53:06;7.50;5.75;3.00
78512;PMS5003;67809;55.034;73.462;2023-12-04T10:55:33;7.00;5.75;3.00
78512;PMS5003;67809;55.034;73.462;2023-12-04T10:58:01;7.00;5.00;3.00
78512;PMS5003;67809;55.034;73.462;2023-12-04T11:00:30;8.25;6.00;4.00
78512;PMS5003;67809;55.034;73.462;2023-12-04T11:02:56;9.50;6.00;3.00
78512;PMS5003;67809;55.034;73.462;2023-12-04T11:05:27;12.25;8.75;6.00
78512;PMS5003;67809;55.034;73.462;2023-12-04T11:07:54;9.00;7.00;4.00
78512;PMS5003;67809;55.034;73.462;2023-12-04T11:10:24;10.25;8.50;6.00
78512;PMS5003;67809;55.034;73.462;2023-12-04T11:12:57;10.00;8.00;5.00
78512;PMS5003;67809;55.034;73.462;2023-12-04T11:15:24;8.00;6.00;4.00
78512;PMS5003;67809;55.034;73.462;2023-12-04T11:17:53;9.00;7.00;5.00
78512;PMS5003;67809;55.034;73.462;2023-12-04T11:20:20;16.75;12.75;7.00
78512;PMS5003;67809;55.034;73.462;2023-12-04T11:22:49;19.00;14.25;9.00
78512;PMS5003;67809;55.034;73.462;2023-12-04T11:25:17;22.67;19.00;11.67
78512;PMS5003;67809;55.034;73.462;2023-12-04T11:27:43;29.25;23.00;14.00
78512;PMS5003;67809;55.034;73.462;2023-12-04T11:30:10;36.75;26.75;16.00
78512;PMS5003;67809;55.034;73.462;2023-12-04T11:32:44;46.50;33.50;20.25
78512;PMS5003;67809;55.034;73.462;2023-12-04T11:35:14;36.33;30.00;19.00
78512;PMS5003;67809;55.034;73.462;2023-12-04T11:37:41;37.25;28.25;17.00
78512;PMS5003;67809;55.034;73.462;2023-12-04T11:40:12;39.00;30.00;18.00
78512;PMS5003;67809;55.034;73.462;2023-12-04T11:42:38;31.50;23.50;14.50
78512;PMS5003;67809;55.034;73.462;2023-12-04T11:45:07;30.67;24.00;13.67
78512;PMS5003;67809;55.034;73.462;2023-12-04T11:50:16;52.00;36.00;21.50
78512;PMS5003;67809;55.034;73.462;2023-12-04T11:52:45;37.00;28.00;16.75
78512;PMS5003;67809;55.034;73.462;2023-12-04T11:55:12;28.00;22.00;13.00
78512;PMS5003;67809;55.034;73.462;2023-12-04T11:57:42;20.75;16.50;9.00
78512;PMS5003;67809;55.034;73.462;2023-12-04T12:02:38;21.00;16.00;10.00
78512;PMS5003;67809;55.034;73.462;2023-12-04T12:05:05;20.75;15.00;10.00
78512;PMS5003;67809;55.034;73.462;2023-12-04T12:07:33;19.00;15.00;8.25
78512;PMS5003;67809;55.034;73.462;2023-12-04T12:10:00;19.00;13.75;9.00
78512;PMS5003;67809;55.034;73.462;2023-12-04T12:12:26;25.00;18.75;11.75
78512;PMS5003;67809;55.034;73.462;2023-12-04T12:14:52;29.67;23.33;14.00
78512;PMS5003;67809;55.034;73.462;2023-12-04T12:17:39;29.25;23.00;14.50
78512;PMS5003;67809;55.034;73.462;2023-12-04T12:20:20;28.00;22.50;14.75
78512;PMS5003;67809;55.034;73.462;2023-12-04T12:22:55;30.50;22.00;12.00
78512;PMS5003;67809;55.034;73.462;2023-12-04T12:25:22;28.00;22.33;12.33
78512;PMS5003;67809;55.034;73.462;2023-12-04T12:27:48;31.00;23.75;15.00
78512;PMS5003;67809;55.034;73.462;2023-12-04T12:30:32;36.00;26.00;17.00
78512;PMS5003;67809;55.034;73.462;2023-12-04T12:32:58;33.25;26.25;15.75
78512;PMS5003;67809;55.034;73.462;2023-12-04T12:35:24;37.00;26.00;15.00
78512;PMS5003;67809;55.034;73.462;2023-12-04T12:38:07;32.75;25.00;15.25
78512;PMS5003;67809;55.034;73.462;2023-12-04T12:40:34;35.00;27.00;16.00
78512;PMS5003;67809;55.034;73.462;2023-12-04T12:43:03;32.00;23.00;14.00
78512;PMS5003;67809;55.034;73.462;2023-12-04T12:45:30;33.50;26.00;16.00
78512;PMS5003;67809;55.034;73.462;2023-12-04T12:47:56;35.00;24.50;14.50
78512;PMS5003;67809;55.034;73.462;2023-12-04T12:50:22;33.25;26.00;16.00
78512;PMS5003;67809;55.034;73.462;2023-12-04T12:52:48;30.50;23.75;14.50
78512;PMS5003;67809;55.034;73.462;2023-12-04T12:55:22;33.33;26.00;15.00
78512;PMS5003;67809;55.034;73.462;2023-12-04T12:57:48;34.00;26.25;16.00
78512;PMS5003;67809;55.034;73.462;2023-12-04T13:00:14;32.75;25.00;16.00
78512;PMS5003;67809;55.034;73.462;2023-12-04T13:02:41;32.50;25.00;16.00
78512;PMS5003;67809;55.034;73.462;2023-12-04T13:05:07;37.67;29.00;18.33
78512;PMS5003;67809;55.034;73.462;2023-12-04T13:07:33;38.00;30.00;18.00
78512;PMS5003;67809;55.034;73.462;2023-12-04T13:09:59;35.00;26.25;15.50
78512;PMS5003;67809;55.034;73.462;2023-12-04T13:12:25;34.00;25.25;17.00
78512;PMS5003;67809;55.034;73.462;2023-12-04T13:14:55;43.00;32.00;19.00
78512;PMS5003;67809;55.034;73.462;2023-12-04T13:17:37;45.00;32.50;19.75
78512;PMS5003;67809;55.034;73.462;2023-12-04T13:20:03;41.25;31.50;19.25
78512;PMS5003;67809;55.034;73.462;2023-12-04T13:22:40;47.75;35.50;21.00
78512;PMS5003;67809;55.034;73.462;2023-12-04T13:25:06;63.75;43.50;26.50
78512;PMS5003;67809;55.034;73.462;2023-12-04T13:27:42;59.25;42.00;25.00
78512;PMS5003;67809;55.034;73.462;2023-12-04T13:30:09;54.50;41.50;25.75
78512;PMS5003;67809;55.034;73.462;2023-12-04T13:32:36;57.50;43.00;25.50
78512;PMS5003;67809;55.034;73.462;2023-12-04T13:35:15;63.00;44.25;27.00
78512;PMS5003;67809;55.034;73.462;2023-12-04T13:37:42;61.00;45.50;27.00
78512;PMS5003;67809;55.034;73.462;2023-12-04T13:40:09;62.25;44.75;28.00
78512;PMS5003;67809;55.034;73.462;2023-12-04T13:42:41;58.00;42.00;25.00
78512;PMS5003;67809;55.034;73.462;2023-12-04T13:45:26;62.33;43.67;26.00
78512;PMS5003;67809;55.034;73.462;2023-12-04T13:47:52;54.50;41.50;24.50
78512;PMS5003;67809;55.034;73.462;2023-12-04T13:50:31;54.00;40.75;26.00
78512;PMS5003;67809;55.034;73.462;2023-12-04T13:52:57;56.00;40.25;25.00
78512;PMS5003;67809;55.034;73.462;2023-12-04T13:55:24;50.33;38.67;23.33
78512;PMS5003;67809;55.034;73.462;2023-12-04T13:58:21;54.25;40.00;24.00
78512;PMS5003;67809;55.034;73.462;2023-12-04T14:01:10;51.50;39.25;24.00
78512;PMS5003;67809;55.034;73.462;2023-12-04T14:03:41;53.25;39.25;25.50
78512;PMS5003;67809;55.034;73.462;2023-12-04T14:06:07;51.50;37.50;24.25